Time;durP1;ratioP1;P1;durP2;ratioP2;P2;SDS_P1;SDS_P2;PMS_P1;PMS_P2;Temp;Humidity;BMP_temperature;BMP_pressure;BME280_temperature;BME280_humidity;BME280_pressure;Samples;Min_cycle;Max_cycle;Signal;HPM_P1;HPM_P2
2022/09/23 00:02:28;;;;;;;34.20;28.00;;;21.80;52.40;;;;;;4439931;58;21121;-33
2022/09/23 00:07:28;;;;;;;33.78;28.08;;;21.80;52.40;;;;;;4440431;58;21112;-31
2022/09/23 00:12:29;;;;;;;33.92;27.48;;;21.80;52.30;;;;;;4466606;58;21163;-32
2022/09/23 00:17:31;;;;;;;34.67;27.83;;;21.80;52.30;;;;;;4469357;58;21056;-34
2022/09/23 00:22:32;;;;;;;32.35;26.95;;;21.80;52.30;;;;;;4552103;59;21052;-28
2022/09/23 00:27:34;;;;;;;33.45;27.45;;;21.80;52.30;;;;;;4479222;58;21577;-34
2022/09/23 00:32:39;;;;;;;34.88;27.90;;;21.80;52.40;;;;;;4484612;59;21093;-30
2022/09/23 00:37:41;;;;;;;33.22;27.27;;;21.80;52.30;;;;;;4443225;59;21079;-30
2022/09/23 00:42:47;;;;;;;31.55;26.42;;;21.80;52.30;;;;;;4488502;58;21041;-33
2022/09/23 00:48:01;;;;;;;32.22;26.45;;;21.80;52.30;;;;;;4450959;59;21550;-33
2022/09/23 00:53:08;;;;;;;32.33;26.55;;;21.80;52.30;;;;;;4443325;59;21053;-32
2022/09/23 00:58:13;;;;;;;33.13;26.37;;;21.80;52.30;;;;;;4440486;59;21625;-33
2022/09/23 01:03:15;;;;;;;31.87;25.05;;;21.80;52.30;;;;;;4440830;59;21171;-35
2022/09/23 01:08:16;;;;;;;31.30;26.15;;;21.80;52.30;;;;;;4441587;59;21093;-36
2022/09/23 01:14:22;;;;;;;30.40;24.95;;;21.80;52.30;;;;;;4454545;59;21104;-35
2022/09/23 01:20:55;;;;;;;30.88;24.25;;;21.80;52.30;;;;;;4461741;59;21510;-28
2022/09/23 01:28:56;;;;;;;29.77;24.50;;;21.80;52.30;;;;;;4441851;59;21630;-34
2022/09/23 01:34:23;;;;;;;31.65;25.40;;;21.80;52.30;;;;;;4441923;59;21678;-32
2022/09/23 01:39:52;;;;;;;30.80;25.05;;;21.80;52.30;;;;;;4442758;59;21602;-33
2022/09/23 01:45:03;;;;;;;30.37;24.33;;;21.80;52.30;;;;;;4439381;59;21498;-33
2022/09/23 01:55:39;;;;;;;29.42;24.02;;;21.80;52.20;;;;;;4440012;59;21072;-28
2022/09/23 02:00:50;;;;;;;28.85;23.30;;;21.80;52.20;;;;;;4466096;59;22330;-32
2022/09/23 02:05:57;;;;;;;27.48;23.20;;;21.80;52.20;;;;;;4463199;59;21064;-32
2022/09/23 02:11:09;;;;;;;29.17;23.50;;;21.80;52.20;;;;;;4464323;59;21370;-34
2022/09/23 02:16:21;;;;;;;28.12;23.73;;;21.80;52.20;;;;;;4459881;59;21096;-34
2022/09/23 02:21:26;;;;;;;26.85;22.55;;;21.80;52.20;;;;;;4457852;59;21041;-28
2022/09/23 02:26:37;;;;;;;29.08;22.90;;;21.80;52.20;;;;;;4458016;59;21044;-29
2022/09/23 02:33:11;;;;;;;26.95;22.58;;;21.80;52.20;;;;;;4472076;59;21092;-32
2022/09/23 02:38:31;;;;;;;26.75;22.20;;;21.80;52.20;;;;;;4456612;59;21554;-33
2022/09/23 02:44:16;;;;;;;25.48;21.67;;;21.80;52.10;;;;;;4458009;59;21788;-32
2022/09/23 02:49:23;;;;;;;27.33;22.42;;;21.80;52.10;;;;;;4453360;59;21107;-28
2022/09/23 02:54:27;;;;;;;28.17;21.83;;;21.80;52.10;;;;;;4465931;59;21040;-32
2022/09/23 02:59:29;;;;;;;23.27;20.77;;;21.70;52.00;;;;;;4440220;63;21133;-32
2022/09/23 03:04:51;;;;;;;26.25;21.17;;;21.70;52.00;;;;;;4439735;63;21060;-27
2022/09/23 03:10:21;;;;;;;24.70;20.42;;;21.70;52.00;;;;;;4455652;59;21140;-35
2022/09/23 03:15:42;;;;;;;24.73;21.12;;;21.70;52.00;;;;;;4440110;63;21032;-28
2022/09/23 03:20:57;;;;;;;25.37;20.08;;;21.70;52.00;;;;;;4476413;59;21064;-35
2022/09/23 03:26:05;;;;;;;25.77;21.00;;;21.70;52.00;;;;;;4445305;59;22033;-27
2022/09/23 03:31:06;;;;;;;25.27;20.23;;;21.70;52.00;;;;;;4447272;59;21644;-32
2022/09/23 03:41:38;;;;;;;25.62;20.33;;;21.70;51.90;;;;;;4456008;59;21080;-32
2022/09/23 03:46:45;;;;;;;23.90;19.83;;;21.70;51.80;;;;;;4449876;59;21112;-31
2022/09/23 03:51:46;;;;;;;22.13;18.55;;;21.70;51.80;;;;;;4439720;63;21578;-34
2022/09/23 03:56:47;;;;;;;24.58;18.70;;;21.70;51.80;;;;;;4464209;58;21052;-32
2022/09/23 04:01:49;;;;;;;23.70;18.83;;;21.70;51.80;;;;;;4487680;58;21537;-33
2022/09/23 04:06:49;;;;;;;22.20;17.98;;;21.70;51.70;;;;;;4439981;62;21558;-35
2022/09/23 04:11:51;;;;;;;22.37;18.45;;;21.70;51.80;;;;;;4493176;58;21093;-33
2022/09/23 04:16:52;;;;;;;22.62;17.90;;;21.70;51.80;;;;;;4537195;59;21052;-32
2022/09/23 04:21:52;;;;;;;23.65;18.85;;;21.70;51.80;;;;;;4441721;58;21068;-32
2022/09/23 04:26:56;;;;;;;22.67;18.12;;;21.70;51.80;;;;;;4445359;58;21036;-33
2022/09/23 04:31:57;;;;;;;21.62;18.20;;;21.70;51.70;;;;;;4440038;63;21064;-26
2022/09/23 04:36:59;;;;;;;22.62;18.20;;;21.70;51.70;;;;;;4488371;58;21143;-26
2022/09/23 04:42:00;;;;;;;21.02;17.17;;;21.70;51.60;;;;;;4465080;59;21128;-29
2022/09/23 04:47:01;;;;;;;21.30;17.48;;;21.70;51.50;;;;;;4440710;63;21092;-28
2022/09/23 04:52:04;;;;;;;21.58;17.58;;;21.70;51.40;;;;;;4474016;58;21603;-26
2022/09/23 04:57:05;;;;;;;21.42;17.23;;;21.70;51.40;;;;;;4448659;59;21633;-32
2022/09/23 05:02:05;;;;;;;19.60;16.77;;;21.70;51.40;;;;;;4439966;62;21056;-34
2022/09/23 05:07:07;;;;;;;23.60;17.67;;;21.70;51.30;;;;;;4457685;58;21048;-25
2022/09/23 05:12:07;;;;;;;19.62;16.27;;;21.70;51.80;;;;;;4441897;59;21579;-28
2022/09/23 05:17:08;;;;;;;20.77;16.92;;;21.70;51.20;;;;;;4451178;58;21117;-30
2022/09/23 05:22:09;;;;;;;20.85;16.65;;;21.70;51.20;;;;;;4459844;58;21163;-25
2022/09/23 05:27:10;;;;;;;22.35;17.12;;;21.70;51.10;;;;;;4455380;58;21083;-31
2022/09/23 05:32:10;;;;;;;19.55;16.58;;;21.70;51.00;;;;;;4455572;58;21137;-28
2022/09/23 05:37:11;;;;;;;22.15;16.73;;;21.70;50.90;;;;;;4443111;58;21113;-34
2022/09/23 05:42:12;;;;;;;22.40;17.58;;;21.70;50.90;;;;;;4440213;62;21068;-35
2022/09/23 05:47:13;;;;;;;19.80;16.45;;;21.70;50.90;;;;;;4440239;63;21204;-31
2022/09/23 05:52:14;;;;;;;19.83;16.30;;;21.70;50.80;;;;;;4442904;59;21148;-31
2022/09/23 05:57:14;;;;;;;21.62;17.05;;;21.60;50.70;;;;;;4457981;58;21084;-34
2022/09/23 06:02:15;;;;;;;21.08;17.27;;;21.60;50.60;;;;;;4440993;59;21053;-28
2022/09/23 06:07:16;;;;;;;22.85;17.80;;;21.60;50.60;;;;;;4446060;58;21097;-26
2022/09/23 06:12:17;;;;;;;19.65;16.77;;;21.60;50.60;;;;;;4457682;58;21064;-30
2022/09/23 06:17:18;;;;;;;20.23;16.80;;;21.60;50.60;;;;;;4453535;58;21056;-29
2022/09/23 06:22:23;;;;;;;21.48;17.45;;;21.70;50.50;;;;;;4440667;58;21153;-28
2022/09/23 06:27:23;;;;;;;22.33;17.40;;;21.60;50.50;;;;;;4455021;59;21087;-30
2022/09/23 06:32:24;;;;;;;28.05;19.52;;;21.60;50.40;;;;;;4448883;58;21075;-34
2022/09/23 06:37:25;;;;;;;28.77;20.35;;;21.60;50.10;;;;;;4503745;58;22322;-33
2022/09/23 06:42:26;;;;;;;32.60;20.55;;;21.60;49.90;;;;;;4440173;62;21089;-33
2022/09/23 06:47:28;;;;;;;37.38;23.52;;;21.60;49.80;;;;;;4457398;58;21101;-34
2022/09/23 06:52:28;;;;;;;34.60;24.33;;;21.60;50.10;;;;;;4440220;62;21449;-32
2022/09/23 06:57:30;;;;;;;36.40;25.12;;;21.60;49.50;;;;;;4443809;59;21107;-32
2022/09/23 07:02:31;;;;;;;37.50;26.23;;;21.60;48.90;;;;;;4439030;59;21065;-31
2022/09/23 07:07:31;;;;;;;38.08;26.95;;;21.60;49.00;;;;;;4456239;58;21060;-36
2022/09/23 07:12:33;;;;;;;40.95;27.90;;;21.70;49.00;;;;;;4446639;58;21120;-33
2022/09/23 07:17:33;;;;;;;41.60;29.17;;;21.80;49.30;;;;;;4480575;58;21079;-33
2022/09/23 07:22:34;;;;;;;42.62;29.63;;;21.80;49.30;;;;;;4469121;59;21105;-32
2022/09/23 07:27:36;;;;;;;48.83;31.00;;;21.80;49.40;;;;;;4456675;58;21075;-30
2022/09/23 07:32:36;;;;;;;41.10;31.27;;;21.90;49.30;;;;;;4441501;59;21060;-31
2022/09/23 07:37:38;;;;;;;41.95;30.37;;;21.90;49.40;;;;;;4442479;58;21641;-34
2022/09/23 07:42:39;;;;;;;49.97;33.92;;;22.00;49.50;;;;;;4440012;58;21502;-33
2022/09/23 07:47:40;;;;;;;46.78;33.13;;;22.00;49.40;;;;;;4447601;58;21526;-35
2022/09/23 07:52:41;;;;;;;49.25;33.50;;;22.00;49.50;;;;;;4443510;58;21040;-28
2022/09/23 07:57:42;;;;;;;50.08;35.22;;;22.10;49.50;;;;;;4464856;58;21517;-30
2022/09/23 08:02:43;;;;;;;49.20;36.97;;;22.10;50.00;;;;;;4448198;58;21080;-28
2022/09/23 08:07:44;;;;;;;57.97;37.22;;;22.10;50.10;;;;;;4468754;58;21064;-29
2022/09/23 08:12:45;;;;;;;67.93;42.67;;;22.10;51.10;;;;;;4439866;62;21052;-37
2022/09/23 08:17:46;;;;;;;66.50;44.17;;;22.20;50.70;;;;;;4440397;59;21111;-34
2022/09/23 08:22:50;;;;;;;73.32;47.75;;;22.20;50.80;;;;;;4440943;58;21566;-33
2022/09/23 08:27:51;;;;;;;79.78;50.22;;;22.20;51.00;;;;;;4449580;59;22106;-27
2022/09/23 08:32:52;;;;;;;82.30;52.45;;;22.20;51.20;;;;;;4445820;58;21928;-26
2022/09/23 08:37:52;;;;;;;86.53;53.78;;;22.30;51.30;;;;;;4440152;62;21145;-35
2022/09/23 08:42:53;;;;;;;87.37;57.00;;;22.30;51.40;;;;;;4440462;59;21080;-32
2022/09/23 08:48:12;;;;;;;99.62;60.72;;;22.30;51.30;;;;;;4446777;58;21084;-33
2022/09/23 08:53:28;;;;;;;98.97;61.78;;;22.30;51.40;;;;;;4440181;63;21554;-33
2022/09/23 08:58:52;;;;;;;104.30;60.30;;;22.30;51.10;;;;;;4455935;59;21068;-34
2022/09/23 09:03:55;;;;;;;103.00;62.65;;;22.30;51.20;;;;;;4456641;59;21036;-34
2022/09/23 09:09:02;;;;;;;105.20;63.55;;;22.20;51.00;;;;;;4452406;59;21188;-28
2022/09/23 09:17:48;;;;;;;106.43;62.60;;;22.20;51.00;;;;;;4448071;59;21594;-32
2022/09/23 09:22:59;;;;;;;106.80;63.63;;;22.30;51.10;;;;;;4443696;59;21056;-30
2022/09/23 09:28:02;;;;;;;98.30;63.92;;;22.30;51.30;;;;;;4466668;59;21534;-33
2022/09/23 09:33:09;;;;;;;108.45;68.03;;;22.30;51.50;;;;;;4465501;59;21577;-33
2022/09/23 09:38:09;;;;;;;106.90;66.35;;;22.40;51.60;;;;;;4451054;59;21533;-36
2022/09/23 09:43:21;;;;;;;107.22;65.30;;;22.40;51.70;;;;;;4451308;58;21108;-31
2022/09/23 09:48:37;;;;;;;115.28;69.55;;;22.40;51.80;;;;;;4473982;59;21668;-28
2022/09/23 09:53:38;;;;;;;120.50;68.23;;;22.40;51.90;;;;;;4457785;59;21068;-29
2022/09/23 09:59:50;;;;;;;101.90;66.62;;;22.40;52.00;;;;;;4439847;58;21047;-31
2022/09/23 10:05:01;;;;;;;98.28;65.28;;;22.50;51.90;;;;;;4448135;59;21108;-33
2022/09/23 10:10:20;;;;;;;107.60;67.15;;;22.40;51.90;;;;;;4459697;59;21084;-30
2022/09/23 10:15:39;;;;;;;96.95;62.30;;;22.50;51.80;;;;;;4439988;63;21068;-31
2022/09/23 10:20:40;;;;;;;105.07;68.22;;;22.50;51.80;;;;;;4442632;59;21040;-33
2022/09/23 10:25:41;;;;;;;103.30;67.65;;;22.50;51.90;;;;;;4458259;58;21120;-30
2022/09/23 10:31:11;;;;;;;101.07;68.35;;;22.50;52.20;;;;;;4455691;59;21064;-30
2022/09/23 10:36:15;;;;;;;98.43;64.53;;;22.50;52.20;;;;;;4497183;59;21151;-37
2022/09/23 10:47:54;;;;;;;102.38;67.95;;;22.60;52.70;;;;;;4456483;59;21188;-27
2022/09/23 10:53:18;;;;;;;104.35;69.43;;;22.50;52.90;;;;;;4453731;59;21040;-27
2022/09/23 11:05:26;;;;;;;104.20;70.57;;;22.60;52.90;;;;;;4479576;59;21044;-29
2022/09/23 11:10:56;;;;;;;125.43;84.20;;;22.70;53.20;;;;;;4436918;60;21648;-35
2022/09/23 11:16:22;;;;;;;121.68;84.35;;;22.60;52.40;;;;;;4442138;59;21518;-34
2022/09/23 11:25:03;;;;;;;124.80;86.12;;;22.50;52.10;;;;;;4478506;59;21048;-30
2022/09/23 11:30:21;;;;;;;117.75;86.68;;;22.50;52.20;;;;;;4450789;59;21065;-31
2022/09/23 11:35:28;;;;;;;120.22;84.90;;;22.50;52.20;;;;;;4452359;59;21115;-31
2022/09/23 11:40:37;;;;;;;122.43;85.22;;;22.40;52.10;;;;;;4449116;59;21116;-34
2022/09/23 11:45:45;;;;;;;126.65;85.95;;;22.50;52.00;;;;;;4467357;59;21598;-31
2022/09/23 11:51:27;;;;;;;119.13;85.78;;;22.50;52.20;;;;;;4449818;59;21057;-31
2022/09/23 11:56:42;;;;;;;124.50;83.07;;;22.40;52.10;;;;;;4455387;59;21056;-31
2022/09/23 12:01:53;;;;;;;122.05;83.25;;;22.40;51.90;;;;;;4478897;59;21139;-29
2022/09/23 12:07:02;;;;;;;111.88;81.90;;;22.40;51.90;;;;;;4447705;59;21650;-27
2022/09/23 12:12:33;;;;;;;110.15;80.82;;;22.50;51.90;;;;;;4467715;59;21024;-28
2022/09/23 12:22:03;;;;;;;111.28;78.85;;;22.50;52.00;;;;;;4463896;59;21156;-31
2022/09/23 12:27:09;;;;;;;105.03;74.85;;;22.50;52.00;;;;;;4491960;59;21112;-36
2022/09/23 12:32:17;;;;;;;98.75;74.15;;;22.50;52.30;;;;;;4447108;59;22062;-31
2022/09/23 12:37:37;;;;;;;97.62;71.47;;;22.50;52.00;;;;;;4439902;63;21550;-37
2022/09/23 12:42:45;;;;;;;96.28;69.65;;;22.50;52.60;;;;;;4439658;63;21121;-29
2022/09/23 12:47:45;;;;;;;97.62;70.85;;;22.50;52.00;;;;;;4443881;59;21111;-29
2022/09/23 12:52:46;;;;;;;94.45;69.70;;;22.50;52.20;;;;;;4447980;58;21526;-33
2022/09/23 12:57:47;;;;;;;91.85;70.30;;;22.50;52.20;;;;;;4477577;58;21076;-35
2022/09/23 13:08:23;;;;;;;94.85;70.25;;;22.50;52.10;;;;;;4439438;59;21109;-29
2022/09/23 13:13:39;;;;;;;92.32;70.05;;;22.50;52.00;;;;;;4439638;63;21036;-27
2022/09/23 13:18:57;;;;;;;88.00;66.55;;;22.50;52.20;;;;;;4453677;59;21084;-30
2022/09/23 13:25:33;;;;;;;88.18;67.50;;;22.50;51.90;;;;;;4452315;59;21120;-29
2022/09/23 13:30:34;;;;;;;85.97;67.75;;;22.50;51.50;;;;;;4442776;59;21123;-31
2022/09/23 13:35:40;;;;;;;93.75;70.12;;;22.50;51.20;;;;;;4467517;58;21510;-32
2022/09/23 13:40:43;;;;;;;87.15;66.72;;;22.50;51.20;;;;;;4516374;59;21032;-28
2022/09/23 13:45:44;;;;;;;86.82;67.25;;;22.40;51.30;;;;;;4439950;59;21621;-29
2022/09/23 13:50:52;;;;;;;93.35;68.65;;;22.40;51.20;;;;;;4442861;58;21140;-27
2022/09/23 13:56:10;;;;;;;88.07;67.22;;;22.40;51.10;;;;;;4457278;59;21122;-30
2022/09/23 14:02:14;;;;;;;90.68;66.70;;;22.40;51.00;;;;;;4443810;59;21080;-35
2022/09/23 14:07:17;;;;;;;91.20;67.28;;;22.50;50.70;;;;;;4460714;59;21666;-35
2022/09/23 14:12:21;;;;;;;91.32;67.87;;;22.40;50.80;;;;;;4452707;59;21542;-30
2022/09/23 14:17:22;;;;;;;87.72;67.18;;;22.40;50.90;;;;;;4450045;59;21617;-36
2022/09/23 14:22:26;;;;;;;88.95;66.05;;;22.30;51.10;;;;;;4490393;59;21625;-30
2022/09/23 14:27:32;;;;;;;86.00;64.12;;;22.30;51.20;;;;;;4445663;59;21056;-34
2022/09/23 14:32:33;;;;;;;86.55;62.62;;;22.30;51.20;;;;;;4448011;59;21106;-35
2022/09/23 14:43:26;;;;;;;84.60;62.72;;;22.20;51.30;;;;;;4439424;59;21103;-36
2022/09/23 14:48:32;;;;;;;87.32;63.40;;;22.20;51.40;;;;;;4453625;59;21184;-36
2022/09/23 14:53:39;;;;;;;88.05;63.63;;;22.20;51.50;;;;;;4471320;59;21033;-35
2022/09/23 14:58:52;;;;;;;85.45;64.45;;;22.20;51.50;;;;;;4472475;59;21581;-35
2022/09/23 15:03:56;;;;;;;80.87;60.03;;;22.20;51.60;;;;;;4462826;59;21160;-27
2022/09/23 15:08:57;;;;;;;77.60;59.45;;;22.10;51.60;;;;;;4457252;59;21565;-35
2022/09/23 15:13:59;;;;;;;84.87;61.50;;;22.10;51.60;;;;;;4443390;58;21192;-32
2022/09/23 15:19:00;;;;;;;82.35;61.42;;;22.10;51.60;;;;;;4442014;59;21097;-36
2022/09/23 15:24:01;;;;;;;77.90;59.60;;;22.10;51.70;;;;;;4439640;59;21068;-30
2022/09/23 15:29:08;;;;;;;82.18;59.28;;;22.10;51.80;;;;;;4481379;58;21041;-33
2022/09/23 15:34:10;;;;;;;80.20;58.53;;;22.10;51.70;;;;;;4463356;59;21270;-36
2022/09/23 15:39:12;;;;;;;81.60;60.15;;;22.10;51.70;;;;;;4448157;59;21092;-33
2022/09/23 15:44:16;;;;;;;76.72;56.45;;;22.10;51.70;;;;;;4454988;59;21076;-28
2022/09/23 15:49:50;;;;;;;72.72;55.72;;;22.10;51.80;;;;;;4472190;59;21139;-36
2022/09/23 15:54:52;;;;;;;73.45;55.53;;;22.10;51.70;;;;;;4448370;58;21510;-29
2022/09/23 15:59:57;;;;;;;73.50;55.75;;;22.00;51.70;;;;;;4447389;58;21593;-29
2022/09/23 16:05:01;;;;;;;74.60;56.88;;;22.00;51.70;;;;;;4445697;58;21510;-36
2022/09/23 16:10:02;;;;;;;70.07;54.72;;;22.00;51.70;;;;;;4477449;58;21534;-32
2022/09/23 16:15:09;;;;;;;71.35;54.55;;;22.00;51.80;;;;;;4448561;59;21028;-28
2022/09/23 16:20:11;;;;;;;;;;;22.00;51.70;;;;;;4478131;59;21620;-35
2022/09/23 16:25:12;;;;;;;71.65;54.65;;;22.00;51.80;;;;;;4453249;58;20176;-33
2022/09/23 16:30:13;;;;;;;72.30;54.40;;;22.00;51.80;;;;;;4450903;58;21434;-37
2022/09/23 16:35:15;;;;;;;70.78;54.55;;;22.00;51.80;;;;;;4446845;58;21080;-30
2022/09/23 16:40:19;;;;;;;68.18;53.72;;;22.00;51.80;;;;;;4451860;58;21570;-27
2022/09/23 16:45:21;;;;;;;70.15;53.80;;;22.00;51.80;;;;;;4442115;59;21582;-33
2022/09/23 16:50:23;;;;;;;72.22;54.33;;;22.00;51.80;;;;;;4455581;59;21532;-33
2022/09/23 16:55:26;;;;;;;65.95;50.70;;;22.00;51.80;;;;;;4440084;62;21052;-29
2022/09/23 17:05:47;;;;;;;69.32;54.15;;;22.00;51.90;;;;;;4438859;63;21515;-32
2022/09/23 17:10:55;;;;;;;67.35;52.10;;;22.00;51.80;;;;;;4440156;63;21099;-28
2022/09/23 17:15:57;;;;;;;66.72;52.17;;;22.00;51.90;;;;;;4454521;59;21533;-29
2022/09/23 17:21:00;;;;;;;68.80;52.70;;;21.90;51.90;;;;;;4455912;58;21164;-34
2022/09/23 17:26:01;;;;;;;66.40;52.88;;;21.90;51.90;;;;;;4455311;59;21076;-27
2022/09/23 17:31:04;;;;;;;72.25;54.17;;;21.90;51.90;;;;;;4459499;58;21562;-30
2022/09/23 17:36:10;;;;;;;68.95;53.35;;;22.00;52.10;;;;;;4440267;63;21109;-27
2022/09/23 17:41:12;;;;;;;68.28;52.25;;;22.00;52.00;;;;;;4476831;59;21044;-30
2022/09/23 17:46:17;;;;;;;67.68;53.78;;;21.90;51.90;;;;;;4474588;59;21060;-28
2022/09/23 17:51:18;;;;;;;65.15;53.45;;;21.90;51.90;;;;;;4446354;58;21586;-29
2022/09/23 17:56:25;;;;;;;69.47;54.70;;;22.00;52.00;;;;;;4502232;58;21667;-30
2022/09/23 18:01:26;;;;;;;75.27;56.80;;;21.90;51.90;;;;;;4458504;59;21093;-28
2022/09/23 18:06:31;;;;;;;68.03;52.78;;;21.90;52.00;;;;;;4452905;59;21052;-30
2022/09/23 18:11:34;;;;;;;67.95;53.67;;;21.90;51.90;;;;;;4456749;59;21789;-30
2022/09/23 18:16:40;;;;;;;70.40;53.35;;;21.90;52.50;;;;;;4463809;59;21116;-29
2022/09/23 18:21:44;;;;;;;71.90;55.22;;;21.90;51.90;;;;;;4456911;59;21053;-28
2022/09/23 18:26:46;;;;;;;68.93;54.70;;;21.90;52.00;;;;;;4439773;59;21124;-27
2022/09/23 18:31:48;;;;;;;75.00;56.63;;;21.90;52.00;;;;;;4455479;59;21107;-33
2022/09/23 18:36:49;;;;;;;72.70;56.60;;;21.90;51.90;;;;;;4440473;58;21581;-30
2022/09/23 18:41:50;;;;;;;70.68;56.33;;;21.90;52.00;;;;;;4457318;58;21064;-28
2022/09/23 18:46:50;;;;;;;70.10;55.45;;;21.90;52.00;;;;;;4440044;58;21072;-32
2022/09/23 18:51:54;;;;;;;71.15;55.63;;;21.90;52.00;;;;;;4440034;58;21105;-27
2022/09/23 18:56:56;;;;;;;71.78;55.90;;;21.90;52.00;;;;;;4446346;59;21175;-28
2022/09/23 19:01:57;;;;;;;71.65;55.63;;;21.90;52.00;;;;;;4459706;59;21598;-35
2022/09/23 19:06:59;;;;;;;69.00;54.80;;;21.90;52.00;;;;;;4447727;58;21079;-26
2022/09/23 19:12:01;;;;;;;73.47;56.60;;;21.90;52.00;;;;;;4481601;59;21553;-31
2022/09/23 19:17:03;;;;;;;69.68;55.12;;;21.90;52.00;;;;;;4448586;59;21546;-32
2022/09/23 19:22:05;;;;;;;75.10;57.42;;;21.90;52.00;;;;;;4441473;58;21693;-27
2022/09/23 19:27:06;;;;;;;72.57;56.92;;;21.90;52.70;;;;;;4445622;58;21565;-29
2022/09/23 19:32:07;;;;;;;75.30;56.20;;;21.90;52.10;;;;;;4440453;62;21120;-29
2022/09/23 19:37:08;;;;;;;74.03;55.10;;;21.90;52.10;;;;;;4441308;59;21121;-27
2022/09/23 19:42:09;;;;;;;72.25;56.47;;;21.90;52.00;;;;;;4455320;58;21080;-31
2022/09/23 19:47:14;;;;;;;70.65;54.72;;;21.90;52.00;;;;;;4455240;58;21088;-30
2022/09/23 19:52:15;;;;;;;67.43;54.47;;;21.80;52.00;;;;;;4450156;58;21511;-31
2022/09/23 19:57:16;;;;;;;73.37;56.70;;;21.90;52.00;;;;;;4475828;58;21499;-29
2022/09/23 20:02:17;;;;;;;70.40;54.78;;;21.80;52.00;;;;;;4442896;58;21589;-33
2022/09/23 20:07:18;;;;;;;70.95;54.80;;;21.80;52.00;;;;;;4452229;58;21060;-33
2022/09/23 20:12:19;;;;;;;71.37;55.72;;;21.80;51.90;;;;;;4450288;58;21581;-31
2022/09/23 20:17:19;;;;;;;70.03;54.28;;;21.80;51.90;;;;;;4444400;58;21048;-32
2022/09/23 20:22:27;;;;;;;71.90;55.05;;;21.80;51.90;;;;;;4450694;58;21052;-30
2022/09/23 20:27:30;;;;;;;71.87;54.97;;;21.80;51.90;;;;;;4442819;58;21592;-28
2022/09/23 20:32:31;;;;;;;68.07;52.55;;;21.80;51.80;;;;;;4462205;59;21088;-26
2022/09/23 20:37:34;;;;;;;65.37;51.78;;;21.80;51.80;;;;;;4440227;62;21076;-30
2022/09/23 20:42:35;;;;;;;67.12;52.42;;;21.80;51.70;;;;;;4504236;58;21622;-30
2022/09/23 20:47:35;;;;;;;66.78;51.17;;;21.80;51.80;;;;;;4478755;58;21064;-28
2022/09/23 20:52:36;;;;;;;68.32;51.00;;;21.80;51.80;;;;;;4445561;58;21012;-27
2022/09/23 20:57:37;;;;;;;66.15;51.05;;;21.80;51.60;;;;;;4484046;58;21141;-28
2022/09/23 21:02:38;;;;;;;66.75;50.75;;;21.80;51.70;;;;;;4461378;58;21573;-30
2022/09/23 21:07:39;;;;;;;64.93;50.25;;;21.80;51.60;;;;;;4440612;62;21626;-28
2022/09/23 21:12:39;;;;;;;64.22;48.72;;;21.80;51.60;;;;;;4440192;62;22021;-32
2022/09/23 21:17:40;;;;;;;63.70;49.90;;;21.80;51.60;;;;;;4442407;58;21116;-32
2022/09/23 21:22:41;;;;;;;62.60;49.40;;;21.80;51.50;;;;;;4440206;63;21065;-30
2022/09/23 21:27:43;;;;;;;62.72;49.67;;;21.80;51.50;;;;;;4440613;58;21060;-31
2022/09/23 21:32:43;;;;;;;64.87;49.83;;;21.80;51.50;;;;;;4448008;58;21056;-27
2022/09/23 21:37:44;;;;;;;62.35;48.95;;;21.80;51.50;;;;;;4440883;59;21040;-31
2022/09/23 21:42:46;;;;;;;59.95;46.72;;;21.80;51.40;;;;;;4439828;62;21068;-32
2022/09/23 21:47:47;;;;;;;59.83;46.45;;;21.80;51.40;;;;;;4439805;62;21124;-35
2022/09/23 21:52:50;;;;;;;59.95;47.03;;;21.70;51.30;;;;;;4440798;59;21514;-27
2022/09/23 21:57:51;;;;;;;60.92;47.50;;;21.80;51.30;;;;;;4460767;58;21892;-30
2022/09/23 22:02:52;;;;;;;59.47;46.58;;;21.80;51.40;;;;;;4460199;58;21056;-29
2022/09/23 22:07:56;;;;;;;61.22;46.97;;;21.70;51.20;;;;;;4442576;58;21061;-29
2022/09/23 22:12:57;;;;;;;61.67;46.80;;;21.70;51.20;;;;;;4456448;58;21117;-31
2022/09/23 22:17:58;;;;;;;59.55;46.42;;;21.70;51.10;;;;;;4440157;63;21542;-33
2022/09/23 22:22:59;;;;;;;58.80;45.67;;;21.70;51.10;;;;;;4462154;58;21096;-33
2022/09/23 22:33:20;;;;;;;54.60;43.90;;;21.70;51.00;;;;;;4462149;59;21076;-26
2022/09/23 22:38:21;;;;;;;57.85;43.58;;;21.70;51.00;;;;;;4462624;59;21526;-31
2022/09/23 22:43:22;;;;;;;56.90;45.15;;;21.70;50.90;;;;;;4451198;58;21056;-34
2022/09/23 22:48:23;;;;;;;54.80;44.10;;;21.70;50.90;;;;;;4454938;58;21084;-29
2022/09/23 22:53:24;;;;;;;56.72;43.60;;;21.70;50.90;;;;;;4482512;59;21573;-29
2022/09/23 22:58:26;;;;;;;53.78;42.95;;;21.70;50.90;;;;;;4440357;58;21160;-27
2022/09/23 23:03:27;;;;;;;53.05;42.70;;;21.70;50.90;;;;;;4451789;59;21084;-31
2022/09/23 23:08:29;;;;;;;53.45;41.88;;;21.70;50.90;;;;;;4450368;59;21072;-33
2022/09/23 23:13:31;;;;;;;53.40;42.42;;;21.70;50.80;;;;;;4451984;59;21060;-33
2022/09/23 23:18:39;;;;;;;52.47;41.55;;;21.70;50.80;;;;;;4442304;59;21685;-34
2022/09/23 23:23:43;;;;;;;54.17;42.62;;;21.70;50.70;;;;;;4444853;59;21105;-29
2022/09/23 23:28:43;;;;;;;52.78;41.80;;;21.70;50.70;;;;;;4455823;59;21048;-30
2022/09/23 23:33:45;;;;;;;52.58;41.15;;;21.70;50.70;;;;;;4470821;58;21085;-27
2022/09/23 23:38:48;;;;;;;52.97;42.03;;;21.70;50.70;;;;;;4448010;59;21040;-31
2022/09/23 23:43:55;;;;;;;52.70;40.25;;;21.70;50.60;;;;;;4456819;59;21076;-34
2022/09/23 23:48:57;;;;;;;49.97;39.63;;;21.60;50.80;;;;;;4486523;59;21553;-30
2022/09/23 23:53:58;;;;;;;51.83;39.22;;;21.60;50.40;;;;;;4448050;59;21044;-31
2022/09/23 23:59:01;;;;;;;48.90;38.67;;;21.60;50.40;;;;;;4442987;59;21108;-31
